Time;durP1;ratioP1;P1;durP2;ratioP2;P2;SDS_P1;SDS_P2;PMS_P1;PMS_P2;Temp;Humidity;BMP_temperature;BMP_pressure;BME280_temperature;BME280_humidity;BME280_pressure;Samples;Min_cycle;Max_cycle;Signal;HPM_P1;HPM_P2
2023/03/16 00:02:16;;;;;;;10.80;9.67;;;;;;;4.20;65.79;96546.69;5028762;28;20171;-70
2023/03/16 00:04:41;;;;;;;11.43;10.23;;;;;;;4.28;64.93;96549.16;5028855;28;20190;-70
2023/03/16 00:07:10;;;;;;;12.10;9.27;;;;;;;4.17;65.65;96552.78;5028473;28;20663;-70
2023/03/16 00:09:39;;;;;;;10.50;9.50;;;;;;;4.33;64.45;96552.53;5028689;28;20605;-70
2023/03/16 00:12:14;;;;;;;11.57;10.10;;;;;;;4.19;65.02;96555.38;5028482;28;20757;-70
2023/03/16 00:14:42;;;;;;;10.57;9.53;;;;;;;3.89;65.67;96556.69;5028316;28;20457;-70
2023/03/16 00:17:09;;;;;;;10.70;9.60;;;;;;;3.82;66.58;96555.91;5028416;28;20415;-70
2023/03/16 00:19:34;;;;;;;12.03;9.50;;;;;;;4.00;65.74;96563.44;5028419;28;20433;-70
2023/03/16 00:22:00;;;;;;;10.30;9.20;;;;;;;4.11;65.56;96558.09;5028272;28;20426;-70
2023/03/16 00:24:25;;;;;;;10.93;9.83;;;;;;;4.10;65.32;96558.09;5028294;28;20875;-70
2023/03/16 00:26:53;;;;;;;12.07;10.90;;;;;;;4.21;65.14;96548.41;5027402;28;20254;-70
2023/03/16 00:29:21;;;;;;;9.97;8.83;;;;;;;4.27;64.79;96555.22;5028448;28;20180;-70
2023/03/16 00:31:47;;;;;;;11.70;10.37;;;;;;;4.00;65.84;96557.41;5028530;28;20418;-70
2023/03/16 00:34:14;;;;;;;16.10;10.33;;;;;;;3.90;65.88;96564.47;5028203;28;20469;-70
2023/03/16 00:36:41;;;;;;;10.60;9.60;;;;;;;3.58;67.02;96563.19;5028234;28;20263;-69
2023/03/16 00:39:09;;;;;;;11.53;10.23;;;;;;;3.58;67.41;96562.31;5028544;28;20426;-70
2023/03/16 00:41:36;;;;;;;14.83;10.43;;;;;;;3.87;67.03;96563.66;5028453;28;20419;-70
2023/03/16 00:44:03;;;;;;;11.97;9.80;;;;;;;4.04;66.15;96561.66;5028699;28;20435;-70
2023/03/16 00:46:29;;;;;;;13.37;10.37;;;;;;;4.12;65.86;96564.13;5028258;28;20427;-69
2023/03/16 00:48:55;;;;;;;10.80;8.50;;;;;;;4.17;65.88;96560.56;5027693;28;20416;-70
2023/03/16 00:51:21;;;;;;;11.30;9.43;;;;;;;4.12;65.58;96558.94;5027567;28;20406;-69
2023/03/16 00:53:47;;;;;;;12.20;10.10;;;;;;;4.14;65.42;96564.97;5027451;28;20261;-70
2023/03/16 00:56:14;;;;;;;10.93;9.40;;;;;;;3.91;66.36;96560.13;5027288;28;20418;-69
2023/03/16 00:58:42;;;;;;;10.90;9.33;;;;;;;3.93;66.11;96560.97;5027582;28;20785;-69
2023/03/16 01:01:12;;;;;;;12.73;10.33;;;;;;;4.01;66.11;96562.53;5027402;28;20434;-69
2023/03/16 01:03:38;;;;;;;11.30;9.80;;;;;;;3.95;66.07;96559.22;5027487;28;20489;-69
2023/03/16 01:06:05;;;;;;;11.30;10.20;;;;;;;3.97;66.98;96560.91;5026936;28;20500;-69
2023/03/16 01:08:31;;;;;;;14.63;9.67;;;;;;;3.93;67.34;96564.41;5027429;28;20179;-68
2023/03/16 01:11:02;;;;;;;11.07;9.93;;;;;;;3.76;67.44;96556.88;5027275;28;20426;-69
2023/03/16 01:13:28;;;;;;;11.57;9.33;;;;;;;3.75;67.35;96549.09;5026864;28;20496;-69
2023/03/16 01:15:53;;;;;;;10.43;9.37;;;;;;;3.70;67.41;96548.31;5026932;28;20458;-70
2023/03/16 01:18:19;;;;;;;11.60;10.40;;;;;;;3.75;67.33;96551.69;5027332;28;20552;-70
2023/03/16 01:20:49;;;;;;;11.77;10.27;;;;;;;3.77;67.27;96547.34;5027209;28;20735;-69
2023/03/16 01:23:18;;;;;;;12.63;10.80;;;;;;;3.64;67.96;96551.00;5027173;28;20168;-70
2023/03/16 01:25:51;;;;;;;11.80;10.57;;;;;;;3.63;68.03;96547.53;5026811;28;20982;-70
2023/03/16 01:28:23;;;;;;;12.60;10.57;;;;;;;3.64;67.73;96545.81;5027000;28;20414;-69
2023/03/16 01:30:56;;;;;;;11.07;9.70;;;;;;;3.76;67.31;96545.66;5026946;28;20496;-69
2023/03/16 01:33:22;;;;;;;11.43;10.17;;;;;;;3.67;67.46;96551.81;5026791;28;20976;-69
2023/03/16 01:36:15;;;;;;;11.63;10.43;;;;;;;3.55;67.90;96550.25;5026806;28;20437;-69
2023/03/16 01:38:41;;;;;;;14.70;10.47;;;;;;;3.67;67.42;96551.81;5020182;28;20488;-69
2023/03/16 01:41:07;;;;;;;13.27;11.63;;;;;;;3.58;67.42;96552.81;5026840;28;20426;-69
2023/03/16 01:43:34;;;;;;;12.87;10.47;;;;;;;3.33;68.42;96544.50;5026670;28;20262;-70
2023/03/16 01:46:05;;;;;;;10.87;9.77;;;;;;;3.44;68.23;96541.75;5026426;28;20442;-69
2023/03/16 01:48:43;;;;;;;13.50;10.70;;;;;;;3.38;68.33;96541.84;5026678;28;20418;-69
2023/03/16 01:51:19;;;;;;;10.90;9.80;;;;;;;3.30;68.71;96535.91;5026847;28;21125;-69
2023/03/16 01:53:47;;;;;;;14.13;10.70;;;;;;;3.41;68.04;96534.03;5026576;28;20472;-70
2023/03/16 01:56:17;;;;;;;15.57;10.83;;;;;;;3.35;68.23;96539.28;5026366;28;20418;-69
2023/03/16 01:58:44;;;;;;;14.07;10.93;;;;;;;3.53;67.48;96527.81;5027007;28;20899;-69
2023/03/16 02:01:12;;;;;;;15.53;10.50;;;;;;;3.57;67.20;96532.94;5027132;28;20418;-69
2023/03/16 02:03:37;;;;;;;15.80;11.07;;;;;;;3.50;67.08;96533.91;5026783;28;20410;-70
2023/03/16 02:06:18;;;;;;;12.53;11.23;;;;;;;3.50;67.20;96528.72;5027356;28;20449;-70
2023/03/16 02:08:46;;;;;;;20.70;11.87;;;;;;;3.54;66.89;96525.19;5027442;28;20174;-70
2023/03/16 02:11:11;;;;;;;13.17;10.73;;;;;;;3.39;68.04;96522.81;5027531;28;20505;-69
2023/03/16 02:13:37;;;;;;;14.23;10.50;;;;;;;3.48;67.19;96520.09;5027100;28;20600;-71
2023/03/16 02:16:07;;;;;;;15.50;12.33;;;;;;;3.58;67.04;96519.06;5026680;28;20187;-69
2023/03/16 02:18:33;;;;;;;15.07;11.40;;;;;;;3.65;66.85;96517.25;5026708;28;20639;-69
2023/03/16 02:21:11;;;;;;;16.10;12.27;;;;;;;3.68;67.05;96522.38;5026644;28;20483;-70
2023/03/16 02:23:36;;;;;;;15.43;12.67;;;;;;;3.41;67.32;96515.00;5027309;28;20410;-69
2023/03/16 02:26:22;;;;;;;17.70;12.07;;;;;;;3.45;67.51;96520.16;5026910;28;20414;-70
2023/03/16 02:29:10;;;;;;;14.80;11.33;;;;;;;3.49;66.88;96516.59;5026393;28;20210;-70
2023/03/16 02:31:36;;;;;;;13.37;11.53;;;;;;;3.37;67.32;96519.38;5026375;28;20492;-70
2023/03/16 02:34:03;;;;;;;12.47;10.90;;;;;;;3.12;68.38;96519.72;5024820;28;20470;-70
2023/03/16 02:36:29;;;;;;;13.53;12.10;;;;;;;3.23;67.70;96518.69;5026165;28;20947;-70
2023/03/16 02:38:54;;;;;;;12.80;10.93;;;;;;;3.30;66.97;96513.41;5026446;28;20442;-70
2023/03/16 02:41:20;;;;;;;17.20;11.63;;;;;;;3.26;67.40;96514.34;5026700;28;20453;-69
2023/03/16 02:43:53;;;;;;;14.00;11.67;;;;;;;3.33;66.48;96518.56;5026152;28;20192;-69
2023/03/16 02:46:22;;;;;;;11.63;10.43;;;;;;;3.27;66.84;96512.59;5026089;28;20484;-69
2023/03/16 02:49:06;;;;;;;14.90;11.60;;;;;;;3.39;66.21;96520.22;5025938;28;20410;-69
2023/03/16 02:51:31;;;;;;;16.30;11.43;;;;;;;3.34;66.34;96509.06;5029800;28;20459;-69
2023/03/16 02:53:57;;;;;;;15.60;11.77;;;;;;;3.39;66.25;96507.25;5029847;28;20972;-69
2023/03/16 02:56:23;;;;;;;12.97;10.63;;;;;;;3.20;66.80;96508.38;5029553;28;20637;-69
2023/03/16 02:58:49;;;;;;;12.00;10.30;;;;;;;3.36;66.03;96508.16;5029850;28;20667;-69
2023/03/16 03:01:15;;;;;;;10.60;9.37;;;;;;;3.49;65.70;96506.22;5029937;28;20599;-69
2023/03/16 03:03:40;;;;;;;11.40;10.20;;;;;;;3.22;66.52;96494.50;5029785;28;20498;-69
2023/03/16 03:06:06;;;;;;;12.90;10.70;;;;;;;3.36;65.77;96494.31;5029385;28;20254;-69
2023/03/16 03:08:32;;;;;;;13.07;9.93;;;;;;;3.37;65.23;96501.22;5029573;28;20176;-69
2023/03/16 03:10:58;;;;;;;18.50;10.87;;;;;;;3.25;66.01;96501.38;5029684;28;20179;-69
2023/03/16 03:13:24;;;;;;;14.30;11.70;;;;;;;2.54;68.02;96503.09;5029464;28;20210;-71
2023/03/16 03:15:49;;;;;;;18.10;12.90;;;;;;;2.59;68.01;96500.44;5029208;28;20430;-69
2023/03/16 03:18:15;;;;;;;15.77;13.17;;;;;;;2.23;69.70;96505.16;5029619;28;20645;-70
2023/03/16 03:20:41;;;;;;;15.10;12.17;;;;;;;2.25;69.93;96494.78;5029258;28;20235;-68
2023/03/16 03:23:06;;;;;;;15.37;13.13;;;;;;;2.44;69.48;96500.63;5029339;28;20172;-69
2023/03/16 03:25:35;;;;;;;15.13;11.93;;;;;;;2.31;69.47;96503.31;5029080;28;20195;-70
2023/03/16 03:28:03;;;;;;;16.70;11.53;;;;;;;2.43;68.99;96506.66;5028865;28;20192;-68
2023/03/16 03:30:28;;;;;;;15.67;12.10;;;;;;;2.38;69.09;96517.06;5029124;28;20422;-69
2023/03/16 03:32:54;;;;;;;15.90;12.50;;;;;;;2.65;68.44;96507.31;5029199;28;20468;-68
2023/03/16 03:35:21;;;;;;;16.57;12.73;;;;;;;2.70;68.51;96497.75;5028834;28;20286;-69
2023/03/16 03:37:46;;;;;;;18.10;12.60;;;;;;;2.31;70.11;96502.47;5028683;28;20617;-69
2023/03/16 03:40:14;;;;;;;17.93;13.27;;;;;;;2.72;68.53;96501.19;5029259;28;20417;-68
2023/03/16 03:42:42;;;;;;;18.67;13.10;;;;;;;2.44;69.04;96498.03;5029618;28;20179;-68
2023/03/16 03:45:11;;;;;;;16.30;14.10;;;;;;;2.55;68.34;96496.16;5029338;28;20490;-68
2023/03/16 03:47:37;;;;;;;19.00;11.97;;;;;;;2.44;68.48;96498.91;5028870;28;20419;-71
2023/03/16 03:50:03;;;;;;;16.57;11.70;;;;;;;1.93;69.35;96503.69;5028814;28;20449;-69
2023/03/16 03:52:29;;;;;;;12.03;10.20;;;;;;;2.00;69.32;96499.31;5028952;28;21213;-68
2023/03/16 03:54:54;;;;;;;22.53;11.43;;;;;;;2.02;69.91;96513.09;5028646;28;20466;-68
2023/03/16 03:57:19;;;;;;;13.70;10.73;;;;;;;2.21;69.22;96496.53;5028760;28;20163;-69
2023/03/16 03:59:45;;;;;;;20.20;14.80;;;;;;;2.43;69.44;96496.31;5028995;28;20262;-69
2023/03/16 04:02:12;;;;;;;20.80;13.50;;;;;;;2.56;68.57;96486.69;5028275;28;20212;-69
2023/03/16 04:04:38;;;;;;;17.93;12.93;;;;;;;2.45;68.97;96494.56;5028789;28;20206;-69
2023/03/16 04:07:03;;;;;;;17.13;13.60;;;;;;;2.73;68.30;96497.72;5028467;28;20425;-69
2023/03/16 04:09:32;;;;;;;20.23;13.60;;;;;;;2.67;67.62;96497.78;5026919;28;20418;-69
2023/03/16 04:11:59;;;;;;;23.60;14.97;;;;;;;2.35;69.00;96496.41;5028834;28;20179;-69
2023/03/16 04:14:25;;;;;;;20.60;15.03;;;;;;;1.89;70.71;96500.28;5028296;28;20466;-69
2023/03/16 04:16:50;;;;;;;29.97;14.40;;;;;;;1.77;71.16;96499.50;5028315;28;21037;-69
2023/03/16 04:19:16;;;;;;;26.67;14.63;;;;;;;1.52;72.48;96497.09;5028719;28;20175;-69
2023/03/16 04:21:41;;;;;;;25.87;16.07;;;;;;;2.15;70.53;96491.44;5027009;28;20237;-69
2023/03/16 04:24:07;;;;;;;19.73;13.83;;;;;;;2.36;69.32;96489.47;5028637;28;20200;-69
2023/03/16 04:26:33;;;;;;;21.47;14.30;;;;;;;2.26;69.91;96486.13;5028155;28;20184;-69
2023/03/16 04:28:59;;;;;;;19.17;13.50;;;;;;;2.35;69.70;96482.59;5028943;28;20172;-70
2023/03/16 04:31:24;;;;;;;22.53;13.10;;;;;;;2.28;69.57;96479.22;5028198;28;20468;-69
2023/03/16 04:33:53;;;;;;;21.90;13.13;;;;;;;2.44;69.26;96475.59;5027996;28;20465;-70
2023/03/16 04:36:23;;;;;;;17.30;11.90;;;;;;;2.31;69.70;96482.59;5027893;28;20762;-70
2023/03/16 04:38:49;;;;;;;20.90;13.63;;;;;;;2.43;69.64;96483.34;5028554;28;20425;-69
2023/03/16 04:41:15;;;;;;;24.13;14.43;;;;;;;2.39;69.39;96481.69;5028450;28;20434;-70
2023/03/16 04:43:42;;;;;;;16.13;12.77;;;;;;;2.39;69.33;96485.13;5028345;28;20517;-70
2023/03/16 04:46:08;;;;;;;22.90;13.33;;;;;;;2.35;69.76;96483.44;5028920;28;20179;-69
2023/03/16 04:48:34;;;;;;;21.87;14.97;;;;;;;2.01;71.26;96482.91;5027725;28;20416;-68
2023/03/16 04:51:00;;;;;;;21.70;14.57;;;;;;;2.35;70.27;96477.41;5028173;28;20414;-68
2023/03/16 04:53:26;;;;;;;25.57;14.10;;;;;;;2.35;69.49;96475.69;5027639;28;20632;-69
2023/03/16 04:55:51;;;;;;;18.10;12.10;;;;;;;2.31;69.94;96481.75;5027432;28;20444;-69
2023/03/16 04:58:17;;;;;;;42.27;14.20;;;;;;;2.41;69.87;96479.94;5027508;28;20172;-68
2023/03/16 05:00:42;;;;;;;20.40;13.20;;;;;;;2.37;69.78;96463.56;5027487;28;20594;-69
2023/03/16 05:03:11;;;;;;;25.20;14.20;;;;;;;2.31;69.55;96464.47;5027328;28;20198;-68
2023/03/16 05:05:38;;;;;;;25.73;11.60;;;;;;;1.29;72.79;96461.06;5027300;28;20227;-69
2023/03/16 05:08:04;;;;;;;22.07;12.00;;;;;;;1.14;74.73;96463.75;5027000;28;20500;-68
2023/03/16 05:10:32;;;;;;;26.70;13.33;;;;;;;1.71;72.67;96455.59;5027480;28;20959;-69
2023/03/16 05:12:57;;;;;;;18.37;11.00;;;;;;;2.06;71.06;96457.84;5026982;28;20458;-69
2023/03/16 05:15:23;;;;;;;31.67;12.33;;;;;;;2.01;70.16;96467.38;5027071;28;20441;-68
2023/03/16 05:17:48;;;;;;;16.60;11.30;;;;;;;1.99;71.05;96471.72;5026928;28;20180;-69
2023/03/16 05:20:14;;;;;;;24.07;12.33;;;;;;;2.07;70.98;96459.56;5025664;28;20179;-68
2023/03/16 05:22:42;;;;;;;23.40;11.90;;;;;;;1.62;71.49;96462.53;5026944;28;20179;-68
2023/03/16 05:25:08;;;;;;;22.97;12.13;;;;;;;1.55;72.63;96466.03;5026949;28;20725;-69
2023/03/16 05:27:34;;;;;;;19.00;12.07;;;;;;;1.79;72.72;96474.47;5026362;28;20410;-69
2023/03/16 05:30:00;;;;;;;17.20;10.97;;;;;;;1.88;71.49;96480.44;5026780;28;20437;-69
2023/03/16 05:32:26;;;;;;;17.17;12.37;;;;;;;1.87;71.27;96470.13;5026616;28;20526;-69
2023/03/16 05:34:52;;;;;;;15.53;11.77;;;;;;;2.12;70.81;96474.16;5026536;28;20524;-68
2023/03/16 05:37:18;;;;;;;27.80;13.03;;;;;;;2.29;69.43;96471.44;5026439;28;20411;-68
2023/03/16 05:39:43;;;;;;;26.30;12.37;;;;;;;2.14;70.26;96468.97;5026770;28;20187;-68
2023/03/16 05:42:09;;;;;;;19.50;14.40;;;;;;;2.29;70.02;96468.84;5026666;28;20472;-68
2023/03/16 05:44:34;;;;;;;17.57;12.67;;;;;;;2.31;70.34;96466.22;5026433;28;20241;-69
2023/03/16 05:47:00;;;;;;;18.80;11.60;;;;;;;1.64;71.88;96471.16;5026316;28;20179;-69
2023/03/16 05:49:25;;;;;;;19.07;13.00;;;;;;;1.70;72.10;96475.41;5026710;28;20235;-68
2023/03/16 05:51:51;;;;;;;17.40;11.37;;;;;;;2.15;70.15;96473.31;5026552;28;20262;-69
2023/03/16 05:54:16;;;;;;;19.00;13.20;;;;;;;2.31;69.56;96473.97;5024939;28;20199;-69
2023/03/16 05:56:42;;;;;;;17.37;12.27;;;;;;;2.26;69.74;96470.59;5026144;28;20263;-69
2023/03/16 05:59:07;;;;;;;20.00;13.20;;;;;;;1.59;72.19;96477.22;5026687;28;20171;-69
2023/03/16 06:01:33;;;;;;;21.23;12.60;;;;;;;2.01;70.84;96475.13;5026249;28;20180;-69
2023/03/16 06:04:01;;;;;;;23.60;13.27;;;;;;;1.82;71.22;96469.25;5026263;28;20188;-69
2023/03/16 06:06:27;;;;;;;16.57;12.10;;;;;;;1.83;71.24;96474.44;5025896;28;20242;-69
2023/03/16 06:08:52;;;;;;;15.90;12.57;;;;;;;2.31;69.72;96468.81;5026364;28;20864;-68
2023/03/16 06:11:18;;;;;;;26.40;12.17;;;;;;;2.34;69.41;96463.63;5026291;28;20357;-69
2023/03/16 06:13:43;;;;;;;18.20;11.73;;;;;;;2.33;69.11;96469.66;5026552;28;20665;-69
2023/03/16 06:16:10;;;;;;;23.13;10.60;;;;;;;2.22;69.71;96471.50;5024796;28;20574;-70
2023/03/16 06:18:36;;;;;;;19.67;12.27;;;;;;;2.35;69.38;96469.66;5008854;28;20249;-70
2023/03/16 06:21:01;;;;;;;20.77;10.77;;;;;;;2.03;69.62;96465.63;5026428;28;20422;-69
2023/03/16 06:23:26;;;;;;;15.83;10.13;;;;;;;2.05;70.51;96472.50;5026745;28;20332;-69
2023/03/16 06:25:55;;;;;;;15.60;11.83;;;;;;;1.83;70.66;96479.63;5028728;28;20234;-69
2023/03/16 06:28:21;;;;;;;14.00;9.60;;;;;;;1.92;70.71;96480.44;5030764;28;20181;-69
2023/03/16 06:30:47;;;;;;;15.20;10.87;;;;;;;1.96;70.98;96470.03;5028688;28;20475;-69
2023/03/16 06:33:13;;;;;;;16.70;10.67;;;;;;;1.69;71.58;96463.34;5030461;28;20461;-69
2023/03/16 06:35:38;;;;;;;19.63;11.20;;;;;;;2.00;71.03;96465.66;5030365;28;20191;-68
2023/03/16 06:38:04;;;;;;;20.73;11.80;;;;;;;2.00;71.42;96473.44;5030329;28;20600;-69
2023/03/16 06:40:29;;;;;;;17.33;10.87;;;;;;;1.77;71.94;96469.34;5030368;28;20497;-69
2023/03/16 06:42:55;;;;;;;14.33;11.20;;;;;;;1.68;71.86;96472.00;5029962;28;20193;-69
2023/03/16 06:45:21;;;;;;;21.80;11.60;;;;;;;1.75;71.77;96472.78;5029750;28;20237;-69
2023/03/16 06:47:47;;;;;;;13.10;10.80;;;;;;;1.90;71.38;96477.84;5030373;28;20324;-70
2023/03/16 06:50:13;;;;;;;18.90;11.50;;;;;;;2.15;70.63;96464.66;5030933;28;20918;-69
2023/03/16 06:52:38;;;;;;;16.40;10.20;;;;;;;2.09;70.01;96468.19;5029935;28;20418;-69
2023/03/16 06:55:04;;;;;;;18.00;12.70;;;;;;;2.49;69.13;96470.34;5028619;28;20192;-69
2023/03/16 06:57:30;;;;;;;17.20;10.63;;;;;;;2.36;68.77;96467.03;5029968;28;20267;-70
2023/03/16 06:59:55;;;;;;;14.53;11.20;;;;;;;2.45;68.07;96468.66;5030516;28;20850;-68
2023/03/16 07:02:22;;;;;;;13.33;9.80;;;;;;;2.60;68.07;96468.50;5030561;28;20228;-68
2023/03/16 07:04:48;;;;;;;14.37;10.57;;;;;;;2.22;69.13;96469.78;5030115;28;20563;-68
2023/03/16 07:07:14;;;;;;;14.20;10.30;;;;;;;1.90;70.04;96465.75;5029754;28;20428;-68
2023/03/16 07:09:39;;;;;;;16.40;9.90;;;;;;;2.37;69.18;96462.72;5030448;28;20960;-68
2023/03/16 07:12:05;;;;;;;11.20;10.03;;;;;;;2.19;69.33;96467.19;5031294;28;20184;-68
2023/03/16 07:14:30;;;;;;;13.00;11.03;;;;;;;2.30;68.89;96461.94;5031148;28;20211;-68
2023/03/16 07:16:56;;;;;;;16.13;12.07;;;;;;;1.71;70.84;96469.38;5029590;28;20187;-70
2023/03/16 07:19:21;;;;;;;12.40;10.20;;;;;;;1.66;71.18;96469.41;5029673;28;20258;-70
2023/03/16 07:21:47;;;;;;;14.37;11.03;;;;;;;1.71;71.58;96476.28;5029952;28;20178;-70
2023/03/16 07:24:14;;;;;;;18.77;11.23;;;;;;;2.05;70.38;96472.50;5029675;28;20246;-69
2023/03/16 07:26:40;;;;;;;21.70;12.43;;;;;;;2.09;69.88;96481.13;5030330;28;20410;-70
2023/03/16 07:29:06;;;;;;;15.57;10.50;;;;;;;2.06;69.80;96475.97;5029082;28;20820;-69
2023/03/16 07:31:33;;;;;;;19.73;12.40;;;;;;;1.81;71.34;96472.75;5028383;28;20495;-69
2023/03/16 07:33:59;;;;;;;14.30;10.40;;;;;;;2.12;70.16;96478.50;5027548;28;20211;-70
2023/03/16 07:36:24;;;;;;;13.60;9.57;;;;;;;1.59;71.25;96479.81;5028316;28;20425;-70
2023/03/16 07:38:50;;;;;;;18.83;10.43;;;;;;;1.80;70.84;96474.47;5029607;28;20608;-69
2023/03/16 07:41:16;;;;;;;16.70;11.03;;;;;;;1.97;70.71;96479.50;5029783;28;20179;-70
2023/03/16 07:43:43;;;;;;;13.90;9.60;;;;;;;1.79;71.13;96485.69;5029370;28;20176;-69
2023/03/16 07:46:12;;;;;;;13.83;10.53;;;;;;;1.77;71.30;96487.44;5028894;28;20512;-69
2023/03/16 07:48:42;;;;;;;12.97;10.67;;;;;;;1.20;73.41;96486.97;5029527;28;20502;-69
2023/03/16 07:51:10;;;;;;;13.20;10.57;;;;;;;1.51;72.88;96486.75;5029412;28;20490;-69
2023/03/16 07:53:36;;;;;;;14.73;11.03;;;;;;;1.51;72.82;96484.16;5029007;28;20798;-69
2023/03/16 07:56:01;;;;;;;13.13;9.70;;;;;;;1.71;72.07;96484.03;5028670;28;20433;-69
2023/03/16 07:58:27;;;;;;;16.17;11.00;;;;;;;1.63;72.46;96484.06;5028901;28;20183;-69
2023/03/16 08:00:57;;;;;;;14.73;11.20;;;;;;;1.77;71.79;96494.31;5028843;28;20179;-69
2023/03/16 08:03:23;;;;;;;17.50;11.40;;;;;;;2.49;69.55;96499.69;5028744;28;20184;-68
2023/03/16 08:05:48;;;;;;;14.83;10.40;;;;;;;2.71;69.05;96489.94;5028392;28;20442;-70
2023/03/16 08:08:14;;;;;;;20.40;11.77;;;;;;;2.78;68.66;96479.53;5028486;28;20179;-68
2023/03/16 08:10:40;;;;;;;13.53;10.70;;;;;;;2.63;68.37;96489.19;5028722;28;20174;-69
2023/03/16 08:13:05;;;;;;;13.40;10.70;;;;;;;2.78;68.65;96484.69;5028604;28;20449;-70
2023/03/16 08:15:32;;;;;;;14.30;11.83;;;;;;;3.02;67.91;96488.72;5028742;28;20553;-69
2023/03/16 08:17:59;;;;;;;13.07;11.33;;;;;;;3.43;66.60;96490.75;5028598;28;20171;-70
2023/03/16 08:20:25;;;;;;;13.07;10.33;;;;;;;3.20;67.02;96488.47;5029176;28;20429;-70
2023/03/16 08:22:50;;;;;;;12.40;10.27;;;;;;;3.39;66.96;96489.09;5031285;28;20414;-69
2023/03/16 08:25:18;;;;;;;17.20;12.00;;;;;;;3.33;66.67;96495.22;5031567;28;20218;-69
2023/03/16 08:27:44;;;;;;;12.10;9.33;;;;;;;2.95;67.70;96493.13;5029356;28;20183;-69
2023/03/16 08:30:11;;;;;;;15.33;10.70;;;;;;;2.43;69.31;96502.34;5028631;28;20926;-70
2023/03/16 08:32:38;;;;;;;16.40;10.77;;;;;;;2.78;69.37;96502.84;5028590;28;20434;-69
2023/03/16 08:35:05;;;;;;;13.17;10.80;;;;;;;2.95;69.20;96495.72;5028295;28;20473;-70
2023/03/16 08:37:31;;;;;;;14.80;10.50;;;;;;;2.83;69.27;96494.13;5027785;28;20414;-70
2023/03/16 08:39:59;;;;;;;14.07;10.97;;;;;;;3.25;67.95;96497.06;5028055;28;20815;-70
2023/03/16 08:42:24;;;;;;;18.37;12.53;;;;;;;3.21;67.87;96499.72;5027894;28;20178;-69
2023/03/16 08:44:52;;;;;;;14.63;12.57;;;;;;;3.58;67.00;96506.09;5027700;28;20438;-69
2023/03/16 08:47:18;;;;;;;13.60;11.00;;;;;;;3.40;67.23;96508.94;5027377;28;20176;-69
2023/03/16 08:49:43;;;;;;;11.10;9.57;;;;;;;3.29;67.38;96501.31;5027915;28;20410;-70
2023/03/16 08:52:09;;;;;;;13.60;11.10;;;;;;;3.13;68.02;96505.84;5027858;28;20786;-70
2023/03/16 08:54:35;;;;;;;13.60;10.03;;;;;;;2.97;68.80;96505.19;5027827;28;20238;-69
2023/03/16 08:57:01;;;;;;;14.97;11.33;;;;;;;2.78;69.05;96506.28;5027445;28;20186;-69
2023/03/16 08:59:27;;;;;;;12.80;11.07;;;;;;;3.25;68.05;96504.84;5027728;28;20421;-69
2023/03/16 09:01:53;;;;;;;14.10;9.93;;;;;;;3.72;66.22;96507.63;5028207;28;20266;-68
2023/03/16 09:04:20;;;;;;;13.50;11.03;;;;;;;3.57;66.96;96509.59;5028049;28;20196;-69
2023/03/16 09:06:46;;;;;;;12.73;10.07;;;;;;;3.71;66.39;96500.72;5027236;28;20645;-69
2023/03/16 09:09:12;;;;;;;13.70;10.57;;;;;;;3.58;67.30;96500.06;5029478;28;20500;-69
2023/03/16 09:11:37;;;;;;;13.10;10.57;;;;;;;3.39;67.97;96494.28;5028852;28;20894;-70
2023/03/16 09:14:03;;;;;;;15.50;11.63;;;;;;;4.02;66.35;96494.16;5029085;28;20207;-69
2023/03/16 09:16:29;;;;;;;17.60;10.90;;;;;;;4.09;65.41;96494.94;5029152;28;20183;-69
2023/03/16 09:18:55;;;;;;;13.50;10.53;;;;;;;3.96;66.20;96486.47;5032176;28;20176;-69
2023/03/16 09:21:21;;;;;;;17.30;10.80;;;;;;;4.47;64.73;96495.16;5030354;28;20422;-69
2023/03/16 09:23:46;;;;;;;14.90;10.87;;;;;;;5.30;62.51;96483.94;5032634;28;20175;-69
2023/03/16 09:26:13;;;;;;;16.63;10.63;;;;;;;5.49;61.91;96476.56;5036749;28;20198;-68
2023/03/16 09:28:41;;;;;;;15.47;11.00;;;;;;;5.89;59.25;96478.25;5030850;28;20266;-68
2023/03/16 09:31:07;;;;;;;13.87;10.30;;;;;;;5.79;60.06;96477.63;5031552;28;20490;-70
2023/03/16 09:33:34;;;;;;;12.40;10.73;;;;;;;5.21;61.82;96479.78;5038188;28;20526;-70
2023/03/16 09:36:01;;;;;;;15.73;11.37;;;;;;;5.57;61.35;96479.00;5037575;28;20798;-68
2023/03/16 09:38:26;;;;;;;19.30;11.43;;;;;;;5.55;61.58;96463.44;5038298;28;20421;-69
2023/03/16 09:41:15;;;;;;;15.93;13.33;;;;;;;6.11;59.94;96461.22;5040257;28;20410;-68
2023/03/16 09:43:50;;;;;;;12.67;11.23;;;;;;;5.27;62.34;96474.44;5038505;28;20417;-68
2023/03/16 09:46:27;;;;;;;13.97;12.13;;;;;;;5.23;62.57;96471.94;5027941;28;20516;-68
2023/03/16 09:48:55;;;;;;;18.10;13.07;;;;;;;5.30;62.84;96465.72;5028497;28;20467;-68
2023/03/16 09:51:36;;;;;;;16.17;12.20;;;;;;;5.50;61.61;96460.03;5028239;28;21112;-69
2023/03/16 09:54:09;;;;;;;18.80;11.57;;;;;;;6.18;61.74;96448.03;5036296;28;20508;-69
2023/03/16 10:00:34;;;;;;;15.30;12.47;;;;;;;6.94;57.61;96443.31;5026371;28;20480;-69
2023/03/16 10:06:21;;;;;;;18.70;13.93;;;;;;;6.33;59.94;96434.59;5027423;28;21219;-68
2023/03/16 10:09:11;;;;;;;19.80;13.30;;;;;;;6.68;59.10;96430.16;5027273;28;20500;-68
2023/03/16 10:11:41;;;;;;;19.70;12.27;;;;;;;6.93;58.24;96423.34;5027182;28;20187;-68
2023/03/16 10:14:36;;;;;;;17.83;11.97;;;;;;;6.63;59.48;96427.69;5027434;28;20888;-68
2023/03/16 10:17:17;;;;;;;14.20;11.77;;;;;;;6.56;60.13;96415.72;5026647;28;20461;-70
2023/03/16 10:19:51;;;;;;;16.17;13.17;;;;;;;6.96;58.72;96412.81;5027528;28;20519;-70
2023/03/16 10:22:20;;;;;;;14.90;11.80;;;;;;;6.84;59.38;96410.59;5028510;28;20490;-70
2023/03/16 10:24:55;;;;;;;16.40;13.00;;;;;;;6.86;59.51;96395.75;5027303;28;20923;-68
2023/03/16 10:27:29;;;;;;;19.47;13.20;;;;;;;7.06;59.22;96389.91;5026852;28;20419;-68
2023/03/16 10:29:55;;;;;;;19.33;12.00;;;;;;;7.75;57.25;96382.53;5026377;28;20941;-69
2023/03/16 10:32:23;;;;;;;16.00;12.63;;;;;;;6.77;59.49;96376.00;5026253;28;20440;-69
2023/03/16 10:34:57;;;;;;;15.20;12.13;;;;;;;7.03;59.40;96374.38;5026698;28;20656;-69
2023/03/16 10:37:25;;;;;;;14.67;12.40;;;;;;;7.35;58.99;96375.16;5026490;28;20970;-70
2023/03/16 10:39:50;;;;;;;19.13;11.97;;;;;;;7.16;59.98;96375.72;5026436;28;20441;-70
2023/03/16 10:42:18;;;;;;;16.03;11.67;;;;;;;7.92;57.73;96368.91;5026648;28;20832;-69
2023/03/16 10:44:45;;;;;;;14.97;12.00;;;;;;;7.70;58.70;96376.63;5026254;28;20192;-69
2023/03/16 10:47:37;;;;;;;18.43;13.50;;;;;;;8.04;57.09;96376.31;5026326;28;20402;-68
2023/03/16 10:50:19;;;;;;;13.83;12.33;;;;;;;8.48;56.26;96370.50;5025420;28;20458;-69
2023/03/16 10:52:48;;;;;;;14.83;11.77;;;;;;;8.72;55.20;96363.50;5026809;28;20900;-69
2023/03/16 10:55:15;;;;;;;14.60;11.73;;;;;;;8.38;56.38;96361.22;5026559;28;20964;-69
2023/03/16 10:57:42;;;;;;;16.00;12.40;;;;;;;8.68;56.85;96359.28;5026364;28;20413;-70
2023/03/16 11:00:20;;;;;;;13.60;12.20;;;;;;;8.94;56.04;96357.47;5026570;28;20566;-69
2023/03/16 11:02:48;;;;;;;12.90;11.57;;;;;;;8.87;55.81;96359.44;5026852;28;20410;-69
2023/03/16 11:05:16;;;;;;;13.27;11.87;;;;;;;8.43;57.90;96354.09;5026560;28;20430;-69
2023/03/16 11:07:48;;;;;;;24.97;12.87;;;;;;;8.32;58.27;96343.16;5026136;28;20432;-69
2023/03/16 11:10:26;;;;;;;14.40;12.13;;;;;;;8.16;58.67;96348.91;5026195;28;20477;-69
2023/03/16 11:12:52;;;;;;;14.33;12.73;;;;;;;8.80;57.60;96345.75;5030028;28;20416;-69
2023/03/16 11:15:19;;;;;;;17.37;11.93;;;;;;;8.50;57.41;96344.25;5030212;28;20438;-69
2023/03/16 11:17:50;;;;;;;13.03;11.30;;;;;;;8.51;57.65;96353.84;5028459;28;20479;-68
2023/03/16 11:20:27;;;;;;;13.77;11.70;;;;;;;7.79;60.87;96351.94;5029757;28;20406;-70
2023/03/16 11:22:53;;;;;;;13.57;11.50;;;;;;;8.19;59.51;96358.41;5029893;28;20418;-69
2023/03/16 11:25:32;;;;;;;18.70;14.63;;;;;;;8.25;58.85;96351.22;5029302;28;20446;-69
2023/03/16 11:28:26;;;;;;;18.30;12.60;;;;;;;8.81;58.28;96346.59;5029363;28;20406;-69
2023/03/16 11:31:07;;;;;;;20.23;11.90;;;;;;;8.37;59.24;96334.22;5029283;28;20418;-69
2023/03/16 11:33:34;;;;;;;14.63;12.30;;;;;;;8.60;57.16;96330.81;5029577;28;20565;-69
2023/03/16 11:36:31;;;;;;;14.13;12.17;;;;;;;8.67;58.04;96319.19;5029354;28;20685;-70
2023/03/16 11:39:26;;;;;;;19.13;11.10;;;;;;;9.01;56.44;96317.91;5029607;28;20839;-69